sensor_id;sensor_type;location;lat;lon;timestamp;temperature;humidity
11126;DHT22;5617;54.046;10.676;2022-07-29T00:00:05;12.40;99.10
11126;DHT22;5617;54.046;10.676;2022-07-29T00:02:15;12.40;99.20
11126;DHT22;5617;54.046;10.676;2022-07-29T00:04:23;12.40;99.20
11126;DHT22;5617;54.046;10.676;2022-07-29T00:06:30;12.40;99.30
11126;DHT22;5617;54.046;10.676;2022-07-29T00:08:39;12.40;99.30
11126;DHT22;5617;54.046;10.676;2022-07-29T00:10:46;12.40;99.40
11126;DHT22;5617;54.046;10.676;2022-07-29T00:12:54;12.30;99.40
11126;DHT22;5617;54.046;10.676;2022-07-29T00:15:02;12.20;99.50
11126;DHT22;5617;54.046;10.676;2022-07-29T00:17:10;12.20;99.70
11126;DHT22;5617;54.046;10.676;2022-07-29T00:19:17;12.20;99.80
11126;DHT22;5617;54.046;10.676;2022-07-29T00:21:25;12.20;99.80
11126;DHT22;5617;54.046;10.676;2022-07-29T00:23:33;12.20;99.90
11126;DHT22;5617;54.046;10.676;2022-07-29T00:25:42;12.20;99.90
11126;DHT22;5617;54.046;10.676;2022-07-29T00:27:49;12.20;99.90
11126;DHT22;5617;54.046;10.676;2022-07-29T00:29:57;12.20;99.90
11126;DHT22;5617;54.046;10.676;2022-07-29T00:32:05;12.20;99.90
11126;DHT22;5617;54.046;10.676;2022-07-29T00:34:13;12.10;99.90
11126;DHT22;5617;54.046;10.676;2022-07-29T00:36:34;12.10;99.90
11126;DHT22;5617;54.046;10.676;2022-07-29T00:38:42;12.10;99.90
11126;DHT22;5617;54.046;10.676;2022-07-29T00:40:52;12.10;99.90
11126;DHT22;5617;54.046;10.676;2022-07-29T00:43:00;12.10;99.90
11126;DHT22;5617;54.046;10.676;2022-07-29T00:45:09;12.00;99.90
11126;DHT22;5617;54.046;10.676;2022-07-29T00:47:16;12.00;99.90
11126;DHT22;5617;54.046;10.676;2022-07-29T00:49:24;11.90;99.90
11126;DHT22;5617;54.046;10.676;2022-07-29T00:51:31;11.90;99.90
11126;DHT22;5617;54.046;10.676;2022-07-29T00:53:39;11.90;99.90
11126;DHT22;5617;54.046;10.676;2022-07-29T00:55:47;11.80;99.90
11126;DHT22;5617;54.046;10.676;2022-07-29T00:57:57;11.80;99.90
11126;DHT22;5617;54.046;10.676;2022-07-29T01:00:07;11.80;99.90
11126;DHT22;5617;54.046;10.676;2022-07-29T01:02:17;11.80;99.90
11126;DHT22;5617;54.046;10.676;2022-07-29T01:04:24;11.70;99.90
11126;DHT22;5617;54.046;10.676;2022-07-29T01:06:33;11.70;99.90
11126;DHT22;5617;54.046;10.676;2022-07-29T01:08:41;11.70;99.90
11126;DHT22;5617;54.046;10.676;2022-07-29T01:10:50;11.70;99.90
11126;DHT22;5617;54.046;10.676;2022-07-29T01:13:00;11.70;99.90
11126;DHT22;5617;54.046;10.676;2022-07-29T01:15:09;11.60;99.90
11126;DHT22;5617;54.046;10.676;2022-07-29T01:17:20;11.60;99.90
11126;DHT22;5617;54.046;10.676;2022-07-29T01:19:40;11.50;99.90
11126;DHT22;5617;54.046;10.676;2022-07-29T01:21:57;11.40;99.90
11126;DHT22;5617;54.046;10.676;2022-07-29T01:24:33;11.40;99.90
11126;DHT22;5617;54.046;10.676;2022-07-29T01:26:47;11.40;99.90
11126;DHT22;5617;54.046;10.676;2022-07-29T01:29:02;11.40;99.90
11126;DHT22;5617;54.046;10.676;2022-07-29T01:31:11;11.40;99.90
11126;DHT22;5617;54.046;10.676;2022-07-29T01:33:24;11.40;99.90
11126;DHT22;5617;54.046;10.676;2022-07-29T01:35:52;11.40;99.90
11126;DHT22;5617;54.046;10.676;2022-07-29T01:38:05;11.30;99.90
11126;DHT22;5617;54.046;10.676;2022-07-29T01:40:19;11.20;99.90
11126;DHT22;5617;54.046;10.676;2022-07-29T01:42:32;11.10;99.90
11126;DHT22;5617;54.046;10.676;2022-07-29T01:44:50;11.00;99.90
11126;DHT22;5617;54.046;10.676;2022-07-29T01:47:10;11.00;99.90
11126;DHT22;5617;54.046;10.676;2022-07-29T01:49:24;11.00;99.90
11126;DHT22;5617;54.046;10.676;2022-07-29T01:51:38;11.10;99.90
11126;DHT22;5617;54.046;10.676;2022-07-29T01:53:51;11.10;99.90
11126;DHT22;5617;54.046;10.676;2022-07-29T01:56:01;11.00;99.90
11126;DHT22;5617;54.046;10.676;2022-07-29T01:58:11;11.00;99.90
11126;DHT22;5617;54.046;10.676;2022-07-29T02:00:20;11.00;99.90
11126;DHT22;5617;54.046;10.676;2022-07-29T02:02:30;11.00;99.90
11126;DHT22;5617;54.046;10.676;2022-07-29T02:04:40;11.00;99.90
11126;DHT22;5617;54.046;10.676;2022-07-29T02:06:50;11.00;99.90
11126;DHT22;5617;54.046;10.676;2022-07-29T02:08:59;11.00;99.90
11126;DHT22;5617;54.046;10.676;2022-07-29T02:11:08;11.00;99.90
11126;DHT22;5617;54.046;10.676;2022-07-29T02:13:16;11.00;99.90
11126;DHT22;5617;54.046;10.676;2022-07-29T02:15:28;10.90;99.90
11126;DHT22;5617;54.046;10.676;2022-07-29T02:17:40;10.90;99.90
11126;DHT22;5617;54.046;10.676;2022-07-29T02:19:49;10.80;99.90
11126;DHT22;5617;54.046;10.676;2022-07-29T02:21:57;10.80;99.90
11126;DHT22;5617;54.046;10.676;2022-07-29T02:24:06;10.90;99.90
11126;DHT22;5617;54.046;10.676;2022-07-29T02:26:17;10.90;99.90
11126;DHT22;5617;54.046;10.676;2022-07-29T02:28:27;10.90;99.90
11126;DHT22;5617;54.046;10.676;2022-07-29T02:30:40;10.90;99.90
11126;DHT22;5617;54.046;10.676;2022-07-29T02:32:49;10.90;99.90
11126;DHT22;5617;54.046;10.676;2022-07-29T02:34:58;10.90;99.90
11126;DHT22;5617;54.046;10.676;2022-07-29T02:37:09;10.80;99.90
11126;DHT22;5617;54.046;10.676;2022-07-29T02:39:17;10.80;99.90
11126;DHT22;5617;54.046;10.676;2022-07-29T02:41:28;10.80;99.90
11126;DHT22;5617;54.046;10.676;2022-07-29T02:43:36;10.80;99.90
11126;DHT22;5617;54.046;10.676;2022-07-29T02:45:45;10.80;99.90
11126;DHT22;5617;54.046;10.676;2022-07-29T02:47:56;10.70;99.90
11126;DHT22;5617;54.046;10.676;2022-07-29T02:50:09;10.80;99.90
11126;DHT22;5617;54.046;10.676;2022-07-29T02:52:21;10.70;99.90
11126;DHT22;5617;54.046;10.676;2022-07-29T02:54:37;10.70;99.90
11126;DHT22;5617;54.046;10.676;2022-07-29T02:56:46;10.80;99.90
11126;DHT22;5617;54.046;10.676;2022-07-29T02:58:58;10.80;99.90
11126;DHT22;5617;54.046;10.676;2022-07-29T03:01:13;10.80;99.90
11126;DHT22;5617;54.046;10.676;2022-07-29T03:03:25;10.80;99.90
11126;DHT22;5617;54.046;10.676;2022-07-29T03:05:35;10.80;99.90
11126;DHT22;5617;54.046;10.676;2022-07-29T03:07:47;10.80;99.90
11126;DHT22;5617;54.046;10.676;2022-07-29T03:09:56;10.70;99.90
11126;DHT22;5617;54.046;10.676;2022-07-29T03:12:05;10.70;99.90
11126;DHT22;5617;54.046;10.676;2022-07-29T03:14:13;10.70;99.90
11126;DHT22;5617;54.046;10.676;2022-07-29T03:16:24;10.70;99.90
11126;DHT22;5617;54.046;10.676;2022-07-29T03:18:32;10.70;99.90
11126;DHT22;5617;54.046;10.676;2022-07-29T03:20:41;10.70;99.90
11126;DHT22;5617;54.046;10.676;2022-07-29T03:22:49;10.70;99.90
11126;DHT22;5617;54.046;10.676;2022-07-29T03:24:57;10.70;99.90
11126;DHT22;5617;54.046;10.676;2022-07-29T03:27:05;10.70;99.90
11126;DHT22;5617;54.046;10.676;2022-07-29T03:29:13;10.80;99.90
11126;DHT22;5617;54.046;10.676;2022-07-29T03:31:20;10.80;99.90
11126;DHT22;5617;54.046;10.676;2022-07-29T03:33:30;10.80;99.90
11126;DHT22;5617;54.046;10.676;2022-07-29T03:35:38;10.70;99.90
11126;DHT22;5617;54.046;10.676;2022-07-29T03:37:46;10.70;99.90
11126;DHT22;5617;54.046;10.676;2022-07-29T03:39:56;10.80;99.90
11126;DHT22;5617;54.046;10.676;2022-07-29T03:42:05;10.80;99.90
11126;DHT22;5617;54.046;10.676;2022-07-29T03:44:15;10.90;99.90
11126;DHT22;5617;54.046;10.676;2022-07-29T03:46:23;10.90;99.90
11126;DHT22;5617;54.046;10.676;2022-07-29T03:48:37;10.90;99.90
11126;DHT22;5617;54.046;10.676;2022-07-29T03:50:46;10.90;99.90
11126;DHT22;5617;54.046;10.676;2022-07-29T03:52:56;10.90;99.90
11126;DHT22;5617;54.046;10.676;2022-07-29T03:55:05;10.90;99.90
11126;DHT22;5617;54.046;10.676;2022-07-29T03:57:15;11.00;99.90
11126;DHT22;5617;54.046;10.676;2022-07-29T03:59:23;11.00;99.90
11126;DHT22;5617;54.046;10.676;2022-07-29T04:01:32;11.10;99.90
11126;DHT22;5617;54.046;10.676;2022-07-29T04:03:43;11.10;99.90
11126;DHT22;5617;54.046;10.676;2022-07-29T04:05:58;11.20;99.90
11126;DHT22;5617;54.046;10.676;2022-07-29T04:08:06;11.20;99.90
11126;DHT22;5617;54.046;10.676;2022-07-29T04:10:15;11.20;99.90
11126;DHT22;5617;54.046;10.676;2022-07-29T04:12:23;11.30;99.90
11126;DHT22;5617;54.046;10.676;2022-07-29T04:14:31;11.30;99.90
11126;DHT22;5617;54.046;10.676;2022-07-29T04:16:38;11.40;99.90
11126;DHT22;5617;54.046;10.676;2022-07-29T04:18:47;11.40;99.90
11126;DHT22;5617;54.046;10.676;2022-07-29T04:20:54;11.40;99.90
11126;DHT22;5617;54.046;10.676;2022-07-29T04:23:02;11.50;99.90
11126;DHT22;5617;54.046;10.676;2022-07-29T04:25:10;11.50;99.90
11126;DHT22;5617;54.046;10.676;2022-07-29T04:27:18;11.50;99.90
11126;DHT22;5617;54.046;10.676;2022-07-29T04:29:25;11.50;99.90
11126;DHT22;5617;54.046;10.676;2022-07-29T04:31:33;11.60;99.90
11126;DHT22;5617;54.046;10.676;2022-07-29T04:33:41;11.70;99.90
11126;DHT22;5617;54.046;10.676;2022-07-29T04:35:50;11.80;99.90
11126;DHT22;5617;54.046;10.676;2022-07-29T04:37:59;11.70;99.90
11126;DHT22;5617;54.046;10.676;2022-07-29T04:40:08;11.80;99.90
11126;DHT22;5617;54.046;10.676;2022-07-29T04:42:16;11.80;99.90
11126;DHT22;5617;54.046;10.676;2022-07-29T04:44:24;11.90;99.90
11126;DHT22;5617;54.046;10.676;2022-07-29T04:46:31;12.00;99.90
11126;DHT22;5617;54.046;10.676;2022-07-29T04:48:39;12.10;99.90
11126;DHT22;5617;54.046;10.676;2022-07-29T04:50:46;12.10;99.90
11126;DHT22;5617;54.046;10.676;2022-07-29T04:52:55;12.20;99.90
11126;DHT22;5617;54.046;10.676;2022-07-29T04:55:04;12.30;99.90
11126;DHT22;5617;54.046;10.676;2022-07-29T04:57:12;12.30;99.90
11126;DHT22;5617;54.046;10.676;2022-07-29T04:59:19;12.30;99.90
11126;DHT22;5617;54.046;10.676;2022-07-29T05:01:27;12.40;99.90
11126;DHT22;5617;54.046;10.676;2022-07-29T05:03:34;12.40;99.90
11126;DHT22;5617;54.046;10.676;2022-07-29T05:05:42;12.50;99.90
11126;DHT22;5617;54.046;10.676;2022-07-29T05:07:49;12.60;99.90
11126;DHT22;5617;54.046;10.676;2022-07-29T05:09:58;12.70;99.90
11126;DHT22;5617;54.046;10.676;2022-07-29T05:12:07;12.80;99.90
11126;DHT22;5617;54.046;10.676;2022-07-29T05:14:14;12.80;99.90
11126;DHT22;5617;54.046;10.676;2022-07-29T05:16:22;13.00;99.90
11126;DHT22;5617;54.046;10.676;2022-07-29T05:18:29;13.10;99.90
11126;DHT22;5617;54.046;10.676;2022-07-29T05:20:37;13.30;99.90
11126;DHT22;5617;54.046;10.676;2022-07-29T05:22:44;13.20;99.90
11126;DHT22;5617;54.046;10.676;2022-07-29T05:24:52;13.40;99.90
11126;DHT22;5617;54.046;10.676;2022-07-29T05:27:01;13.50;99.90
11126;DHT22;5617;54.046;10.676;2022-07-29T05:29:09;13.60;99.90
11126;DHT22;5617;54.046;10.676;2022-07-29T05:31:17;13.70;99.90
11126;DHT22;5617;54.046;10.676;2022-07-29T05:33:24;13.80;99.90
11126;DHT22;5617;54.046;10.676;2022-07-29T05:35:32;13.90;99.90
11126;DHT22;5617;54.046;10.676;2022-07-29T05:37:41;14.10;99.90
11126;DHT22;5617;54.046;10.676;2022-07-29T05:39:49;14.20;99.90
11126;DHT22;5617;54.046;10.676;2022-07-29T05:41:56;14.30;99.90
11126;DHT22;5617;54.046;10.676;2022-07-29T05:44:05;14.40;99.90
11126;DHT22;5617;54.046;10.676;2022-07-29T05:46:13;14.50;99.90
11126;DHT22;5617;54.046;10.676;2022-07-29T05:48:21;14.60;99.90
11126;DHT22;5617;54.046;10.676;2022-07-29T05:50:28;14.80;99.90
11126;DHT22;5617;54.046;10.676;2022-07-29T05:52:36;14.90;99.90
11126;DHT22;5617;54.046;10.676;2022-07-29T05:54:45;15.00;99.90
11126;DHT22;5617;54.046;10.676;2022-07-29T05:56:52;15.00;99.90
11126;DHT22;5617;54.046;10.676;2022-07-29T05:59:00;15.10;99.90
11126;DHT22;5617;54.046;10.676;2022-07-29T06:01:09;15.30;99.90
11126;DHT22;5617;54.046;10.676;2022-07-29T06:03:16;15.40;99.90
11126;DHT22;5617;54.046;10.676;2022-07-29T06:05:24;15.50;99.90
11126;DHT22;5617;54.046;10.676;2022-07-29T06:07:31;15.70;99.90
11126;DHT22;5617;54.046;10.676;2022-07-29T06:09:39;15.90;99.90
11126;DHT22;5617;54.046;10.676;2022-07-29T06:11:47;16.00;99.90
11126;DHT22;5617;54.046;10.676;2022-07-29T06:13:54;16.20;99.90
11126;DHT22;5617;54.046;10.676;2022-07-29T06:16:02;16.30;99.90
11126;DHT22;5617;54.046;10.676;2022-07-29T06:18:12;16.50;99.90
11126;DHT22;5617;54.046;10.676;2022-07-29T06:20:19;16.70;99.90
11126;DHT22;5617;54.046;10.676;2022-07-29T06:22:27;16.90;99.90
11126;DHT22;5617;54.046;10.676;2022-07-29T06:24:36;17.10;99.90
11126;DHT22;5617;54.046;10.676;2022-07-29T06:26:47;17.30;99.90
11126;DHT22;5617;54.046;10.676;2022-07-29T06:28:55;17.40;99.90
11126;DHT22;5617;54.046;10.676;2022-07-29T06:31:03;17.50;99.90
11126;DHT22;5617;54.046;10.676;2022-07-29T06:33:17;17.70;99.90
11126;DHT22;5617;54.046;10.676;2022-07-29T06:35:25;17.80;99.90
11126;DHT22;5617;54.046;10.676;2022-07-29T06:37:33;17.90;99.90
11126;DHT22;5617;54.046;10.676;2022-07-29T06:39:41;18.10;99.90
11126;DHT22;5617;54.046;10.676;2022-07-29T06:41:49;18.20;99.90
11126;DHT22;5617;54.046;10.676;2022-07-29T06:43:57;18.30;99.90
11126;DHT22;5617;54.046;10.676;2022-07-29T06:46:07;18.30;99.90
11126;DHT22;5617;54.046;10.676;2022-07-29T06:48:16;18.40;99.90
11126;DHT22;5617;54.046;10.676;2022-07-29T06:50:24;18.40;99.90
11126;DHT22;5617;54.046;10.676;2022-07-29T06:52:31;18.50;99.90
11126;DHT22;5617;54.046;10.676;2022-07-29T06:54:39;18.60;99.90
11126;DHT22;5617;54.046;10.676;2022-07-29T06:56:53;18.70;99.90
11126;DHT22;5617;54.046;10.676;2022-07-29T06:59:01;18.80;99.90
11126;DHT22;5617;54.046;10.676;2022-07-29T07:01:09;18.90;99.90
11126;DHT22;5617;54.046;10.676;2022-07-29T07:03:19;19.10;99.90
11126;DHT22;5617;54.046;10.676;2022-07-29T07:05:28;19.30;99.80
11126;DHT22;5617;54.046;10.676;2022-07-29T07:07:37;19.40;99.50
11126;DHT22;5617;54.046;10.676;2022-07-29T07:09:45;19.50;99.20
11126;DHT22;5617;54.046;10.676;2022-07-29T07:11:52;19.50;98.70
11126;DHT22;5617;54.046;10.676;2022-07-29T07:14:00;19.50;98.70
11126;DHT22;5617;54.046;10.676;2022-07-29T07:16:08;19.60;98.60
11126;DHT22;5617;54.046;10.676;2022-07-29T07:18:16;19.80;98.30
11126;DHT22;5617;54.046;10.676;2022-07-29T07:20:25;19.90;97.70
11126;DHT22;5617;54.046;10.676;2022-07-29T07:22:33;20.00;97.60
11126;DHT22;5617;54.046;10.676;2022-07-29T07:24:40;20.10;97.60
11126;DHT22;5617;54.046;10.676;2022-07-29T07:26:48;20.30;97.40
11126;DHT22;5617;54.046;10.676;2022-07-29T07:28:55;20.40;97.00
11126;DHT22;5617;54.046;10.676;2022-07-29T07:31:03;20.50;96.90
11126;DHT22;5617;54.046;10.676;2022-07-29T07:33:10;20.50;96.70
11126;DHT22;5617;54.046;10.676;2022-07-29T07:35:18;20.60;96.70
11126;DHT22;5617;54.046;10.676;2022-07-29T07:37:27;20.50;96.60
11126;DHT22;5617;54.046;10.676;2022-07-29T07:39:34;20.50;96.60
11126;DHT22;5617;54.046;10.676;2022-07-29T07:41:42;20.50;96.40
11126;DHT22;5617;54.046;10.676;2022-07-29T07:43:49;20.60;96.30
11126;DHT22;5617;54.046;10.676;2022-07-29T07:45:58;20.50;96.20
11126;DHT22;5617;54.046;10.676;2022-07-29T07:48:05;20.50;96.20
11126;DHT22;5617;54.046;10.676;2022-07-29T07:50:13;20.50;96.20
11126;DHT22;5617;54.046;10.676;2022-07-29T07:52:21;20.50;96.20
11126;DHT22;5617;54.046;10.676;2022-07-29T07:54:31;20.40;95.80
11126;DHT22;5617;54.046;10.676;2022-07-29T07:56:38;20.40;95.90
11126;DHT22;5617;54.046;10.676;2022-07-29T07:58:46;20.60;95.80
11126;DHT22;5617;54.046;10.676;2022-07-29T08:00:53;20.80;95.70
11126;DHT22;5617;54.046;10.676;2022-07-29T08:03:02;21.10;95.50
11126;DHT22;5617;54.046;10.676;2022-07-29T08:05:10;21.30;95.30
11126;DHT22;5617;54.046;10.676;2022-07-29T08:07:18;21.50;95.10
11126;DHT22;5617;54.046;10.676;2022-07-29T08:09:29;21.60;94.70
11126;DHT22;5617;54.046;10.676;2022-07-29T08:11:38;21.60;94.40
11126;DHT22;5617;54.046;10.676;2022-07-29T08:13:46;21.50;94.20
11126;DHT22;5617;54.046;10.676;2022-07-29T08:15:54;21.50;94.00
11126;DHT22;5617;54.046;10.676;2022-07-29T08:18:06;21.40;93.90
11126;DHT22;5617;54.046;10.676;2022-07-29T08:20:13;21.40;93.80
11126;DHT22;5617;54.046;10.676;2022-07-29T08:22:21;21.40;93.70
11126;DHT22;5617;54.046;10.676;2022-07-29T08:24:29;21.30;93.70
11126;DHT22;5617;54.046;10.676;2022-07-29T08:27:00;21.30;93.80
11126;DHT22;5617;54.046;10.676;2022-07-29T08:29:08;21.20;93.70
11126;DHT22;5617;54.046;10.676;2022-07-29T08:31:16;21.20;93.90
11126;DHT22;5617;54.046;10.676;2022-07-29T08:33:23;21.20;93.90
11126;DHT22;5617;54.046;10.676;2022-07-29T08:35:31;21.30;93.70
11126;DHT22;5617;54.046;10.676;2022-07-29T08:37:39;21.30;93.60
11126;DHT22;5617;54.046;10.676;2022-07-29T08:39:48;21.30;93.40
11126;DHT22;5617;54.046;10.676;2022-07-29T08:41:55;21.40;93.20
11126;DHT22;5617;54.046;10.676;2022-07-29T08:44:04;21.60;93.00
11126;DHT22;5617;54.046;10.676;2022-07-29T08:46:12;21.90;92.70
11126;DHT22;5617;54.046;10.676;2022-07-29T08:48:21;21.90;92.60
11126;DHT22;5617;54.046;10.676;2022-07-29T08:50:29;21.90;92.40
11126;DHT22;5617;54.046;10.676;2022-07-29T08:52:39;21.80;92.10
11126;DHT22;5617;54.046;10.676;2022-07-29T08:54:47;21.90;91.70
11126;DHT22;5617;54.046;10.676;2022-07-29T08:56:55;22.00;91.70
11126;DHT22;5617;54.046;10.676;2022-07-29T08:59:05;22.10;91.70
11126;DHT22;5617;54.046;10.676;2022-07-29T09:01:17;22.30;91.50
11126;DHT22;5617;54.046;10.676;2022-07-29T09:03:30;22.60;91.20
11126;DHT22;5617;54.046;10.676;2022-07-29T09:05:41;22.80;91.00
11126;DHT22;5617;54.046;10.676;2022-07-29T09:07:49;23.10;90.80
11126;DHT22;5617;54.046;10.676;2022-07-29T09:09:57;23.30;90.60
11126;DHT22;5617;54.046;10.676;2022-07-29T09:12:06;23.10;90.20
11126;DHT22;5617;54.046;10.676;2022-07-29T09:14:16;23.00;90.00
11126;DHT22;5617;54.046;10.676;2022-07-29T09:16:23;22.90;90.10
11126;DHT22;5617;54.046;10.676;2022-07-29T09:18:35;22.90;90.00
11126;DHT22;5617;54.046;10.676;2022-07-29T09:20:51;22.70;89.60
11126;DHT22;5617;54.046;10.676;2022-07-29T09:23:16;22.70;89.70
11126;DHT22;5617;54.046;10.676;2022-07-29T09:25:34;22.60;90.00
11126;DHT22;5617;54.046;10.676;2022-07-29T09:27:50;22.60;89.70
11126;DHT22;5617;54.046;10.676;2022-07-29T09:30:02;22.80;89.90
11126;DHT22;5617;54.046;10.676;2022-07-29T09:32:11;23.10;89.10
11126;DHT22;5617;54.046;10.676;2022-07-29T09:34:22;23.20;88.40
11126;DHT22;5617;54.046;10.676;2022-07-29T09:36:30;23.30;87.70
11126;DHT22;5617;54.046;10.676;2022-07-29T09:38:38;23.10;87.00
11126;DHT22;5617;54.046;10.676;2022-07-29T09:40:56;23.00;86.90
11126;DHT22;5617;54.046;10.676;2022-07-29T09:43:10;22.90;87.00
11126;DHT22;5617;54.046;10.676;2022-07-29T09:45:30;22.80;87.20
11126;DHT22;5617;54.046;10.676;2022-07-29T09:47:42;22.60;86.80
11126;DHT22;5617;54.046;10.676;2022-07-29T09:49:54;22.50;87.20
11126;DHT22;5617;54.046;10.676;2022-07-29T09:52:06;22.40;87.70
11126;DHT22;5617;54.046;10.676;2022-07-29T09:54:21;22.50;87.60
11126;DHT22;5617;54.046;10.676;2022-07-29T09:56:39;22.80;88.10
11126;DHT22;5617;54.046;10.676;2022-07-29T09:58:47;23.20;87.30
11126;DHT22;5617;54.046;10.676;2022-07-29T10:01:07;23.50;86.80
11126;DHT22;5617;54.046;10.676;2022-07-29T10:03:15;23.80;86.00
11126;DHT22;5617;54.046;10.676;2022-07-29T10:05:25;24.00;85.60
11126;DHT22;5617;54.046;10.676;2022-07-29T10:07:44;24.10;85.30
11126;DHT22;5617;54.046;10.676;2022-07-29T10:09:56;24.30;84.40
11126;DHT22;5617;54.046;10.676;2022-07-29T10:12:09;24.30;84.00
11126;DHT22;5617;54.046;10.676;2022-07-29T10:14:19;24.40;83.40
11126;DHT22;5617;54.046;10.676;2022-07-29T10:16:29;24.50;83.00
11126;DHT22;5617;54.046;10.676;2022-07-29T10:18:40;24.50;82.50
11126;DHT22;5617;54.046;10.676;2022-07-29T10:20:51;24.60;82.00
11126;DHT22;5617;54.046;10.676;2022-07-29T10:22:59;24.60;82.00
11126;DHT22;5617;54.046;10.676;2022-07-29T10:25:07;24.70;80.80
11126;DHT22;5617;54.046;10.676;2022-07-29T10:27:16;24.70;80.50
11126;DHT22;5617;54.046;10.676;2022-07-29T10:29:24;24.90;79.50
11126;DHT22;5617;54.046;10.676;2022-07-29T10:31:40;24.70;79.10
11126;DHT22;5617;54.046;10.676;2022-07-29T10:34:00;24.70;79.00
11126;DHT22;5617;54.046;10.676;2022-07-29T10:36:21;24.80;79.40
11126;DHT22;5617;54.046;10.676;2022-07-29T10:38:43;25.00;80.10
11126;DHT22;5617;54.046;10.676;2022-07-29T10:40:57;25.10;79.00
11126;DHT22;5617;54.046;10.676;2022-07-29T10:43:31;25.10;78.30
11126;DHT22;5617;54.046;10.676;2022-07-29T10:45:42;24.90;78.80
11126;DHT22;5617;54.046;10.676;2022-07-29T10:48:04;25.00;78.10
11126;DHT22;5617;54.046;10.676;2022-07-29T10:50:12;24.90;78.40
11126;DHT22;5617;54.046;10.676;2022-07-29T10:52:19;25.00;78.40
11126;DHT22;5617;54.046;10.676;2022-07-29T10:54:47;25.00;78.70
11126;DHT22;5617;54.046;10.676;2022-07-29T10:56:56;24.80;78.40
11126;DHT22;5617;54.046;10.676;2022-07-29T10:59:22;24.70;79.00
11126;DHT22;5617;54.046;10.676;2022-07-29T11:01:30;24.60;80.00
11126;DHT22;5617;54.046;10.676;2022-07-29T11:03:47;24.70;80.30
11126;DHT22;5617;54.046;10.676;2022-07-29T11:05:56;24.80;80.20
11126;DHT22;5617;54.046;10.676;2022-07-29T11:08:24;24.90;79.80
11126;DHT22;5617;54.046;10.676;2022-07-29T11:10:32;25.00;79.50
11126;DHT22;5617;54.046;10.676;2022-07-29T11:12:46;25.20;79.30
11126;DHT22;5617;54.046;10.676;2022-07-29T11:14:58;25.20;79.10
11126;DHT22;5617;54.046;10.676;2022-07-29T11:17:07;25.50;79.40
11126;DHT22;5617;54.046;10.676;2022-07-29T11:19:22;25.90;79.70
11126;DHT22;5617;54.046;10.676;2022-07-29T11:21:36;26.00;78.90
11126;DHT22;5617;54.046;10.676;2022-07-29T11:23:44;26.00;79.10
11126;DHT22;5617;54.046;10.676;2022-07-29T11:26:18;26.20;79.20
11126;DHT22;5617;54.046;10.676;2022-07-29T11:28:29;26.40;77.70
11126;DHT22;5617;54.046;10.676;2022-07-29T11:30:48;26.10;77.90
11126;DHT22;5617;54.046;10.676;2022-07-29T11:32:56;26.00;77.90
11126;DHT22;5617;54.046;10.676;2022-07-29T11:35:14;25.90;78.00
11126;DHT22;5617;54.046;10.676;2022-07-29T11:37:23;25.80;77.80
11126;DHT22;5617;54.046;10.676;2022-07-29T11:39:33;25.50;77.70
11126;DHT22;5617;54.046;10.676;2022-07-29T11:41:41;25.30;77.80
11126;DHT22;5617;54.046;10.676;2022-07-29T11:43:49;25.20;78.10
11126;DHT22;5617;54.046;10.676;2022-07-29T11:45:58;25.10;78.30
11126;DHT22;5617;54.046;10.676;2022-07-29T11:48:07;25.00;78.40
11126;DHT22;5617;54.046;10.676;2022-07-29T11:50:35;24.90;78.20
11126;DHT22;5617;54.046;10.676;2022-07-29T11:52:44;24.70;78.50
11126;DHT22;5617;54.046;10.676;2022-07-29T11:54:58;24.50;79.10
11126;DHT22;5617;54.046;10.676;2022-07-29T11:57:10;24.50;79.70
11126;DHT22;5617;54.046;10.676;2022-07-29T11:59:17;24.30;80.00
11126;DHT22;5617;54.046;10.676;2022-07-29T12:01:26;24.20;80.30
11126;DHT22;5617;54.046;10.676;2022-07-29T12:03:34;24.20;80.60
11126;DHT22;5617;54.046;10.676;2022-07-29T12:05:44;24.20;80.50
11126;DHT22;5617;54.046;10.676;2022-07-29T12:07:51;24.10;80.70
11126;DHT22;5617;54.046;10.676;2022-07-29T12:09:59;24.10;81.20
11126;DHT22;5617;54.046;10.676;2022-07-29T12:12:10;24.10;81.20
11126;DHT22;5617;54.046;10.676;2022-07-29T12:14:25;24.10;81.60
11126;DHT22;5617;54.046;10.676;2022-07-29T12:16:35;24.20;81.60
11126;DHT22;5617;54.046;10.676;2022-07-29T12:18:54;24.10;81.50
11126;DHT22;5617;54.046;10.676;2022-07-29T12:21:03;24.20;81.90
11126;DHT22;5617;54.046;10.676;2022-07-29T12:23:12;24.20;81.80
11126;DHT22;5617;54.046;10.676;2022-07-29T12:25:21;24.10;81.50
11126;DHT22;5617;54.046;10.676;2022-07-29T12:27:29;24.00;82.10
11126;DHT22;5617;54.046;10.676;2022-07-29T12:29:37;24.00;82.40
11126;DHT22;5617;54.046;10.676;2022-07-29T12:31:45;24.00;82.40
11126;DHT22;5617;54.046;10.676;2022-07-29T12:33:54;23.80;82.30
11126;DHT22;5617;54.046;10.676;2022-07-29T12:36:05;23.60;82.40
11126;DHT22;5617;54.046;10.676;2022-07-29T12:38:14;23.50;82.50
11126;DHT22;5617;54.046;10.676;2022-07-29T12:40:22;23.50;82.70
11126;DHT22;5617;54.046;10.676;2022-07-29T12:42:31;23.40;83.30
11126;DHT22;5617;54.046;10.676;2022-07-29T12:44:46;23.40;83.90
11126;DHT22;5617;54.046;10.676;2022-07-29T12:47:02;23.40;84.20
11126;DHT22;5617;54.046;10.676;2022-07-29T12:49:09;23.50;84.50
11126;DHT22;5617;54.046;10.676;2022-07-29T12:51:28;23.50;84.60
11126;DHT22;5617;54.046;10.676;2022-07-29T12:53:36;23.50;85.00
11126;DHT22;5617;54.046;10.676;2022-07-29T12:55:45;23.60;85.30
11126;DHT22;5617;54.046;10.676;2022-07-29T12:57:55;23.60;85.00
11126;DHT22;5617;54.046;10.676;2022-07-29T13:00:09;23.70;85.00
11126;DHT22;5617;54.046;10.676;2022-07-29T13:02:22;23.70;85.10
11126;DHT22;5617;54.046;10.676;2022-07-29T13:04:33;23.80;85.20
11126;DHT22;5617;54.046;10.676;2022-07-29T13:06:47;23.80;85.40
11126;DHT22;5617;54.046;10.676;2022-07-29T13:08:59;23.80;85.40
11126;DHT22;5617;54.046;10.676;2022-07-29T13:11:07;23.80;84.70
11126;DHT22;5617;54.046;10.676;2022-07-29T13:13:15;23.70;84.60
11126;DHT22;5617;54.046;10.676;2022-07-29T13:15:23;23.60;84.50
11126;DHT22;5617;54.046;10.676;2022-07-29T13:17:40;23.60;84.50
11126;DHT22;5617;54.046;10.676;2022-07-29T13:19:49;23.60;84.10
11126;DHT22;5617;54.046;10.676;2022-07-29T13:21:59;23.60;84.20
11126;DHT22;5617;54.046;10.676;2022-07-29T13:24:07;23.60;84.40
11126;DHT22;5617;54.046;10.676;2022-07-29T13:26:15;23.60;84.60
11126;DHT22;5617;54.046;10.676;2022-07-29T13:28:25;23.50;84.40
11126;DHT22;5617;54.046;10.676;2022-07-29T13:30:33;23.50;84.50
11126;DHT22;5617;54.046;10.676;2022-07-29T13:32:41;23.50;84.60
11126;DHT22;5617;54.046;10.676;2022-07-29T13:34:48;23.40;84.50
11126;DHT22;5617;54.046;10.676;2022-07-29T13:36:56;23.40;84.50
11126;DHT22;5617;54.046;10.676;2022-07-29T13:39:05;23.30;84.90
11126;DHT22;5617;54.046;10.676;2022-07-29T13:41:13;23.20;84.50